createdAt,value
2019-04-06T00:02:43.329Z,8.75
2019-04-06T00:07:37.290Z,8.80
2019-04-06T00:12:31.242Z,8.76
2019-04-06T00:17:25.358Z,8.78
2019-04-06T00:22:19.376Z,8.81
2019-04-06T00:27:13.467Z,8.88
2019-04-06T00:32:21.420Z,8.88
2019-04-06T00:37:15.492Z,8.92
2019-04-06T00:42:09.464Z,8.86
2019-04-06T00:47:03.549Z,8.93
2019-04-06T00:51:57.514Z,8.89
2019-04-06T00:56:51.489Z,8.90
2019-04-06T01:01:45.594Z,8.89
2019-04-06T01:06:39.572Z,8.90
2019-04-06T01:11:33.535Z,8.86
2019-04-06T01:16:27.602Z,8.89
2019-04-06T01:21:21.703Z,8.87
2019-04-06T01:26:15.675Z,8.85
2019-04-06T01:31:09.641Z,8.90
2019-04-06T01:36:03.612Z,8.89
2019-04-06T01:40:57.844Z,8.88
2019-04-06T01:45:51.878Z,8.88
2019-04-06T01:50:45.989Z,8.86
2019-04-06T01:55:39.910Z,8.86
2019-04-06T02:00:33.979Z,8.85
2019-04-06T02:05:27.958Z,8.86
2019-04-06T02:10:22.173Z,8.81
2019-04-06T02:15:16.399Z,8.79
2019-04-06T02:20:10.663Z,8.83
2019-04-06T02:25:05.065Z,8.78
2019-04-06T02:30:09.831Z,8.76
2019-04-06T02:35:23.731Z,8.75
2019-04-06T02:40:34.774Z,8.74
2019-04-06T02:45:28.880Z,8.73
2019-04-06T02:50:23.135Z,8.73
2019-04-06T02:55:17.289Z,8.65
2019-04-06T03:00:11.676Z,8.70
2019-04-06T03:05:05.836Z,8.71
2019-04-06T03:09:59.813Z,8.75
2019-04-06T03:14:53.817Z,8.73
2019-04-06T03:19:47.782Z,8.72
2019-04-06T03:24:41.739Z,8.71
2019-04-06T03:29:35.718Z,8.68
2019-04-06T03:34:29.927Z,8.70
2019-04-06T03:39:24.115Z,8.67
2019-04-06T03:44:18.077Z,8.71
2019-04-06T03:49:12.060Z,8.67
2019-04-06T03:54:06.024Z,8.69
2019-04-06T03:58:59.993Z,8.70
2019-04-06T04:03:53.960Z,8.67
2019-04-06T04:08:47.928Z,8.68
2019-04-06T04:13:42.088Z,8.66
2019-04-06T04:18:36.043Z,8.66
2019-04-06T04:23:30.038Z,8.68
2019-04-06T04:28:24.006Z,8.62
2019-04-06T04:33:18.120Z,8.56
2019-04-06T04:38:12.207Z,8.56
2019-04-06T04:43:06.115Z,8.52
2019-04-06T04:48:00.249Z,8.51
2019-04-06T04:52:54.254Z,8.45
2019-04-06T04:57:48.213Z,8.46
2019-04-06T05:02:42.172Z,8.47
2019-04-06T05:07:36.183Z,8.49
2019-04-06T05:12:30.258Z,8.54
2019-04-06T05:17:24.816Z,8.61
2019-04-06T05:22:18.798Z,8.68
2019-04-06T05:27:12.898Z,8.78
2019-04-06T05:32:06.990Z,8.86
2019-04-06T05:37:01.009Z,8.94
2019-04-06T05:41:55.046Z,8.97
2019-04-06T05:46:49.640Z,9.09
2019-04-06T05:51:43.769Z,9.18
2019-04-06T05:56:37.717Z,9.22
2019-04-06T06:01:31.806Z,9.36
2019-04-06T06:06:25.894Z,9.46
2019-04-06T06:11:19.857Z,9.48
2019-04-06T06:16:13.970Z,9.62
2019-04-06T06:21:07.957Z,9.84
2019-04-06T06:26:02.530Z,9.99
2019-04-06T06:30:56.625Z,10.18
2019-04-06T06:35:50.729Z,10.27
2019-04-06T06:40:44.653Z,10.49
2019-04-06T06:45:38.752Z,10.61
2019-04-06T06:50:34.580Z,10.75
2019-04-06T06:55:28.700Z,10.90
2019-04-06T07:00:22.699Z,11.13
2019-04-06T07:05:16.841Z,11.36
2019-04-06T07:10:11.146Z,11.48
2019-04-06T07:15:05.650Z,11.67
2019-04-06T07:19:59.640Z,11.76
2019-04-06T07:24:53.880Z,11.78
2019-04-06T07:29:47.929Z,12.00
2019-04-06T07:34:41.919Z,12.15
2019-04-06T07:39:36.271Z,12.26
2019-04-06T07:44:30.267Z,12.27
2019-04-06T07:49:24.723Z,12.26
2019-04-06T07:54:18.696Z,12.64
2019-04-06T07:59:12.687Z,12.97
2019-04-06T08:04:08.457Z,13.29
2019-04-06T08:09:05.613Z,13.26
2019-04-06T08:13:59.662Z,13.39
2019-04-06T08:18:53.632Z,13.38
2019-04-06T08:23:47.656Z,13.46
2019-04-06T08:28:41.670Z,13.51
2019-04-06T08:33:35.631Z,13.69
2019-04-06T08:38:29.705Z,13.74
2019-04-06T08:43:23.674Z,13.94
2019-04-06T08:48:17.703Z,13.95
2019-04-06T08:53:11.671Z,14.37
2019-04-06T08:58:05.850Z,14.40
2019-04-06T09:02:59.977Z,14.59
2019-04-06T09:07:53.933Z,15.24
2019-04-06T09:12:47.907Z,15.98
2019-04-06T09:17:42.033Z,15.59
2019-04-06T09:22:36.073Z,15.95
2019-04-06T09:27:30.141Z,15.40
2019-04-06T09:32:24.350Z,15.20
2019-04-06T09:37:18.307Z,15.48
2019-04-06T09:42:12.468Z,15.74
2019-04-06T09:47:08.405Z,16.26
2019-04-06T09:52:04.647Z,16.77
2019-04-06T09:57:00.554Z,16.29
2019-04-06T10:02:05.876Z,16.72
2019-04-06T10:07:07.870Z,16.48
2019-04-06T10:12:20.496Z,16.84
2019-04-06T10:17:19.391Z,17.64
2019-04-06T10:22:24.462Z,17.46
2019-04-06T10:27:32.205Z,17.12
2019-04-06T10:32:28.247Z,16.78
2019-04-06T10:37:36.443Z,18.14
2019-04-06T10:42:38.095Z,19.94
2019-04-06T10:47:40.385Z,19.57
2019-04-06T10:52:54.576Z,18.91
2019-04-06T10:57:50.455Z,19.23
2019-04-06T11:03:01.339Z,21.12
2019-04-06T11:08:13.906Z,21.53
2019-04-06T11:13:15.828Z,22.96
2019-04-06T11:18:11.750Z,24.12
2019-04-06T11:23:13.243Z,25.36
2019-04-06T11:28:18.169Z,23.88
2019-04-06T11:33:17.298Z,25.85
2019-04-06T11:38:16.051Z,27.90
2019-04-06T11:43:14.675Z,27.68
2019-04-06T11:48:22.736Z,28.01
2019-04-06T11:53:18.830Z,26.42
2019-04-06T11:58:27.082Z,27.41
2019-04-06T12:03:23.161Z,28.08
2019-04-06T12:08:19.167Z,27.01
2019-04-06T12:13:27.265Z,27.36
2019-04-06T12:18:32.159Z,29.84
2019-04-06T12:23:28.431Z,29.39
2019-04-06T12:28:24.459Z,30.84
2019-04-06T12:33:26.294Z,29.10
2019-04-06T12:38:24.750Z,26.66
2019-04-06T12:43:23.325Z,26.66
2019-04-06T12:48:34.903Z,28.14
2019-04-06T12:53:33.668Z,27.05
2019-04-06T12:58:46.359Z,27.12
2019-04-06T13:03:48.440Z,25.53
2019-04-06T13:08:44.435Z,27.41
2019-04-06T13:13:40.401Z,26.32
2019-04-06T13:18:42.595Z,25.58
2019-04-06T13:23:41.464Z,25.09
2019-04-06T13:28:46.182Z,24.51
2019-04-06T13:33:51.110Z,23.89
2019-04-06T13:38:50.031Z,23.06
2019-04-06T13:43:58.168Z,21.44
2019-04-06T13:48:54.396Z,21.12
2019-04-06T13:53:50.377Z,21.39
2019-04-06T13:59:01.677Z,21.17
2019-04-06T14:03:58.128Z,21.06
2019-04-06T14:09:09.025Z,20.93
2019-04-06T14:14:14.094Z,21.81
2019-04-06T14:19:10.084Z,21.80
2019-04-06T14:24:14.790Z,21.75
2019-04-06T14:29:19.730Z,21.07
2019-04-06T14:34:32.858Z,20.85
2019-04-06T14:39:41.079Z,20.67
2019-04-06T14:44:54.257Z,19.98
2019-04-06T14:49:53.365Z,19.76
2019-04-06T14:54:55.620Z,19.45
2019-04-06T15:00:09.021Z,19.37
2019-04-06T15:05:13.267Z,19.67
2019-04-06T15:10:09.249Z,22.38
2019-04-06T15:15:07.219Z,22.91
2019-04-06T15:20:09.206Z,25.00
2019-04-06T15:25:23.729Z,26.74
2019-04-06T15:30:29.100Z,26.96
2019-04-06T15:35:27.990Z,31.29
2019-04-06T15:40:23.884Z,32.64
2019-04-06T15:45:31.724Z,31.48
2019-04-06T15:50:30.542Z,35.07
2019-04-06T15:55:29.474Z,35.07
2019-04-06T16:00:34.516Z,29.81
2019-04-06T16:05:33.490Z,27.85
2019-04-06T16:10:29.614Z,25.13
2019-04-06T16:15:35.225Z,22.87
2019-04-06T16:20:33.892Z,21.99
2019-04-06T16:25:32.539Z,22.31
2019-04-06T16:30:37.449Z,22.48
2019-04-06T16:35:36.189Z,23.49
2019-04-06T16:40:32.212Z,28.08
2019-04-06T16:45:43.361Z,29.17
2019-04-06T16:50:55.606Z,27.63
2019-04-06T16:55:51.606Z,28.14
2019-04-06T17:00:59.663Z,26.11
2019-04-06T17:06:07.593Z,23.18
2019-04-06T17:11:06.265Z,21.36
2019-04-06T17:16:02.117Z,20.62
2019-04-06T17:21:03.810Z,19.83
2019-04-06T17:26:11.921Z,19.41
2019-04-06T17:31:17.348Z,19.02
2019-04-06T17:36:30.019Z,18.83
2019-04-06T17:41:34.747Z,18.46
2019-04-06T17:46:39.887Z,18.12
2019-04-06T17:51:36.161Z,17.70
2019-04-06T17:56:48.018Z,17.23
2019-04-06T18:01:59.126Z,16.80
2019-04-06T18:06:55.164Z,16.36
2019-04-06T18:11:54.184Z,15.82
2019-04-06T18:16:48.370Z,15.52
2019-04-06T18:21:42.511Z,15.19
2019-04-06T18:26:36.713Z,14.86
2019-04-06T18:31:38.438Z,14.56
2019-04-06T18:36:43.393Z,14.42
2019-04-06T18:41:37.336Z,14.17
2019-04-06T18:46:31.588Z,13.95
2019-04-06T18:51:25.930Z,13.82
2019-04-06T18:56:20.050Z,13.64
2019-04-06T19:01:14.523Z,13.46
2019-04-06T19:06:08.677Z,13.30
2019-04-06T19:11:02.834Z,13.10
2019-04-06T19:15:56.868Z,12.96
2019-04-06T19:20:51.031Z,12.83
2019-04-06T19:25:45.811Z,12.72
2019-04-06T19:30:39.873Z,12.61
2019-04-06T19:35:33.971Z,12.45
2019-04-06T19:40:28.132Z,12.30
2019-04-06T19:45:22.345Z,12.21
2019-04-06T19:50:16.433Z,12.12
2019-04-06T19:55:11.036Z,12.02
2019-04-06T20:00:05.849Z,11.92
2019-04-06T20:04:59.872Z,11.84
2019-04-06T20:09:53.947Z,11.82
2019-04-06T20:14:48.374Z,11.85
2019-04-06T20:19:42.846Z,11.71
2019-04-06T20:24:37.362Z,11.60
2019-04-06T20:29:31.623Z,11.64
2019-04-06T20:34:26.152Z,11.71
2019-04-06T20:39:20.753Z,11.69
2019-04-06T20:44:14.778Z,11.61
2019-04-06T20:49:09.314Z,11.52
2019-04-06T20:54:03.472Z,11.41
2019-04-06T20:58:57.565Z,11.27
2019-04-06T21:04:00.222Z,11.16
2019-04-06T21:08:48.029Z,11.10
2019-04-06T21:13:42.358Z,11.06
2019-04-06T21:18:36.711Z,10.87
2019-04-06T21:23:31.308Z,10.76
2019-04-06T21:28:25.626Z,10.63
2019-04-06T21:33:19.830Z,10.56
2019-04-06T21:38:13.764Z,10.44
2019-04-06T21:47:36.001Z,10.36
2019-04-06T21:52:30.025Z,10.28
2019-04-06T21:57:24.604Z,10.20
2019-04-06T22:02:19.311Z,10.12
2019-04-06T22:07:14.165Z,10.03
2019-04-06T22:12:08.238Z,9.97
2019-04-06T22:17:02.763Z,9.92
2019-04-06T22:21:56.855Z,9.85
2019-04-06T22:26:50.830Z,9.75
2019-04-06T22:31:45.028Z,9.72
2019-04-06T22:36:39.111Z,9.65
2019-04-06T22:41:33.205Z,9.60
2019-04-06T22:46:27.257Z,9.55
2019-04-06T22:51:21.887Z,9.54
2019-04-06T22:56:16.669Z,9.47
2019-04-06T23:01:12.912Z,9.41
2019-04-06T23:06:15.335Z,9.29
2019-04-06T23:11:09.570Z,9.29
2019-04-06T23:16:03.539Z,9.33
2019-04-06T23:20:57.600Z,9.35
2019-04-06T23:25:51.861Z,9.35
2019-04-06T23:30:46.163Z,9.38
2019-04-06T23:35:40.114Z,9.39
2019-04-06T23:40:34.519Z,9.42
2019-04-06T23:45:28.808Z,9.54
2019-04-06T23:50:22.875Z,9.66
2019-04-06T23:55:16.962Z,9.83
